Register Now
 Register Now
 

Trip log for: TANK the fifth
Trip log index: Evening commute from Manchester
  • Avg: 23.35 mpg (US)
  • Max: 25.7 mpg (US) 2008-07-15
Trip date Fuel economy Details
2008-06-24 23.8 90*, 28.7 miles, 2404 rpm max, 72 mph max, 43 mph avg, ?ac
2008-06-25 20.5 95*, 28.7 miles, 2690 rpm max, 79 mph max, 48 mph avg, ?ac
2008-06-26 21.8 91*, 28.7 miles, 2845 rpm max, 71 mph max, 45 mph avg, ?ac
2008-06-30 25.1 85*, 28.7 miles, 2323 rpm max, 66 mph max, 42 mph avg, NO ac
2008-07-01 23.3 86*, 28.7 miles, 2613 rpm max, 68 mph max, 41 mph avg, ?ac
2008-07-02 25.2 76*, 28.7 miles, 2459 rpm max, 70 mph max, 41 mph avg, NO ac
2008-07-03 23.2 90*, 28.7 miles, 2313 rpm max, 70 mph max, 41 mph avg, YES ac
2008-07-07 23.1 91*, 28.7 miles, 2276 rpm max, 71 mph max, 42 mph avg, YES ac
2008-07-08 22.9 91*, 28.7 miles, 2381 rpm max, 70 mph max, 41 mph avg, YES ac
2008-07-09 23.4 82*, 28.7 miles, 2457 rpm max, 69 mph max, 40 mph avg, YES ac
2008-07-10 24.9 79*, 28.7 miles, 2299 rpm max, 68 mph max, 39 mph avg, NO ac
2008-07-11 23.4 92*, 28.7 miles, 2107 rpm max, 71 mph max, 39 mph avg, YES ac
2008-07-14 23.2 86*, 28.7 miles, 2577 rpm max, 72 mph max, 43 mph avg, YES ac
2008-07-15 25.7 76*, 28.6 miles, 2289 rpm max, 69 mph max, 40 mph avg, NO ac
2008-07-16 25.4 80*, 28.6 miles, 2888 rpm max, 67 mph max, 39 mph avg, NO ac
2008-07-17 20.6 90*, 32.8 miles, 2723 rpm max, 65 mph max, 33 mph avg, YES ac
2008-07-18 22.6 90*, 28.7 miles, 2854 rpm max, 77 mph max, 44 mph avg, YES ac
2008-07-21 22.6 88*, 29.5 miles, 2502 rpm max, 76 mph max, 43 mph avg, YES ac
2008-07-22 22.7 80*, 28.7 miles, 2682 rpm max, 73 mph max, 42 mph avg, YES ac
2008-07-24 25.3 79*, 28.7 miles, 2364 rpm max, 66 mph max, 42 mph avg, NO ac
2008-07-25 22.1 83*, 28.7 miles, 2469 rpm max, 72 mph max, 42 mph avg, YES ac
2008-07-28 22.8 82*, 28.7 miles, 2614 rpm max, 70 mph max, 42 mph avg, YES ac
2008-07-29 23.8 83*, 28.7 miles, 2904 rpm max, 74 mph max, 43 mph avg, YES ac
2008-07-30 23 82*, 28.7 miles, 2611 rpm max, 72 mph max, 42 mph avg, YES ac



Powered by vBulletin® Version 3.8.11
Copyright ©2000 - 2022, vBulletin Solutions Inc.
Content Relevant URLs by vBSEO 3.5.2
All content copyright EcoModder.com